Terminal Aerodrome Forecast
Issued by NWS

Home | Current Version | Previous Version | Text Only | Print | Product List | Glossary On
Versions: 1 2 3 4 5 6 7 8 9 10 11 12 13 14 15
000
FTPQ31 PGUM 252000 RRA
TAFPQ
TAF
PGRO 252040Z 2521/2618 07009KT P6SM VCSH FEW018 SCT040 BKN120
      TEMPO 2521/2523 05013KT 5SM SHRA SCT014 BKN025
     FM260100 07012KT P6SM VCSH FEW018 SCT040 SCT120=

USA.gov is the U.S. government's official web portal to all federal, state and local government web resources and services.